sensor_id;sensor_type;location;lat;lon;timestamp;P1;durP1;ratioP1;P2;durP2;ratioP2
19605;SDS011;9950;50.168;8.210;2023-09-08T00:00:29;7.68;;;4.68;;
19605;SDS011;9950;50.168;8.210;2023-09-08T00:02:56;6.60;;;4.55;;
19605;SDS011;9950;50.168;8.210;2023-09-08T00:05:23;6.63;;;4.70;;
19605;SDS011;9950;50.168;8.210;2023-09-08T00:07:50;7.72;;;4.03;;
19605;SDS011;9950;50.168;8.210;2023-09-08T00:10:17;7.38;;;4.53;;
19605;SDS011;9950;50.168;8.210;2023-09-08T00:12:44;7.70;;;4.38;;
19605;SDS011;9950;50.168;8.210;2023-09-08T00:15:11;5.32;;;4.43;;
19605;SDS011;9950;50.168;8.210;2023-09-08T00:17:40;8.18;;;4.53;;
19605;SDS011;9950;50.168;8.210;2023-09-08T00:20:07;6.43;;;4.78;;
19605;SDS011;9950;50.168;8.210;2023-09-08T00:22:34;7.00;;;5.28;;
19605;SDS011;9950;50.168;8.210;2023-09-08T00:25:01;6.90;;;4.82;;
19605;SDS011;9950;50.168;8.210;2023-09-08T00:27:29;10.75;;;5.30;;
19605;SDS011;9950;50.168;8.210;2023-09-08T00:29:56;6.95;;;4.47;;
19605;SDS011;9950;50.168;8.210;2023-09-08T00:32:26;6.95;;;5.03;;
19605;SDS011;9950;50.168;8.210;2023-09-08T00:34:55;6.85;;;4.57;;
19605;SDS011;9950;50.168;8.210;2023-09-08T00:37:22;9.10;;;4.97;;
19605;SDS011;9950;50.168;8.210;2023-09-08T00:39:49;7.70;;;5.15;;
19605;SDS011;9950;50.168;8.210;2023-09-08T00:42:16;8.77;;;4.90;;
19605;SDS011;9950;50.168;8.210;2023-09-08T00:44:43;7.38;;;4.97;;
19605;SDS011;9950;50.168;8.210;2023-09-08T00:47:11;8.98;;;5.13;;
19605;SDS011;9950;50.168;8.210;2023-09-08T00:49:38;7.68;;;4.85;;
19605;SDS011;9950;50.168;8.210;2023-09-08T00:52:06;8.18;;;4.85;;
19605;SDS011;9950;50.168;8.210;2023-09-08T00:54:34;12.35;;;5.40;;
19605;SDS011;9950;50.168;8.210;2023-09-08T00:57:01;6.20;;;5.03;;
19605;SDS011;9950;50.168;8.210;2023-09-08T00:59:29;7.65;;;5.55;;
19605;SDS011;9950;50.168;8.210;2023-09-08T01:01:57;6.97;;;5.75;;
19605;SDS011;9950;50.168;8.210;2023-09-08T01:04:25;9.30;;;5.53;;
19605;SDS011;9950;50.168;8.210;2023-09-08T01:06:52;8.30;;;5.70;;
19605;SDS011;9950;50.168;8.210;2023-09-08T01:09:20;8.50;;;5.80;;
19605;SDS011;9950;50.168;8.210;2023-09-08T01:11:47;8.85;;;5.80;;
19605;SDS011;9950;50.168;8.210;2023-09-08T01:14:17;6.80;;;5.20;;
19605;SDS011;9950;50.168;8.210;2023-09-08T01:16:44;6.68;;;5.55;;
19605;SDS011;9950;50.168;8.210;2023-09-08T01:19:12;8.90;;;5.90;;
19605;SDS011;9950;50.168;8.210;2023-09-08T01:21:45;7.28;;;5.47;;
19605;SDS011;9950;50.168;8.210;2023-09-08T01:24:30;7.93;;;5.65;;
19605;SDS011;9950;50.168;8.210;2023-09-08T01:27:00;9.93;;;6.38;;
19605;SDS011;9950;50.168;8.210;2023-09-08T01:29:28;8.40;;;5.43;;
19605;SDS011;9950;50.168;8.210;2023-09-08T01:31:56;7.32;;;5.97;;
19605;SDS011;9950;50.168;8.210;2023-09-08T01:34:23;8.27;;;5.95;;
19605;SDS011;9950;50.168;8.210;2023-09-08T01:36:50;9.25;;;6.03;;
19605;SDS011;9950;50.168;8.210;2023-09-08T01:39:18;9.52;;;6.57;;
19605;SDS011;9950;50.168;8.210;2023-09-08T01:41:45;8.45;;;6.30;;
19605;SDS011;9950;50.168;8.210;2023-09-08T01:44:14;11.77;;;6.10;;
19605;SDS011;9950;50.168;8.210;2023-09-08T01:46:41;8.88;;;6.97;;
19605;SDS011;9950;50.168;8.210;2023-09-08T01:49:08;11.27;;;6.75;;
19605;SDS011;9950;50.168;8.210;2023-09-08T01:51:35;11.70;;;6.75;;
19605;SDS011;9950;50.168;8.210;2023-09-08T01:54:02;9.48;;;6.65;;
19605;SDS011;9950;50.168;8.210;2023-09-08T01:56:32;10.07;;;6.40;;
19605;SDS011;9950;50.168;8.210;2023-09-08T01:58:59;11.57;;;6.65;;
19605;SDS011;9950;50.168;8.210;2023-09-08T02:01:27;8.32;;;6.40;;
19605;SDS011;9950;50.168;8.210;2023-09-08T02:03:55;8.48;;;6.78;;
19605;SDS011;9950;50.168;8.210;2023-09-08T02:06:22;9.60;;;6.72;;
19605;SDS011;9950;50.168;8.210;2023-09-08T02:08:49;11.57;;;6.75;;
19605;SDS011;9950;50.168;8.210;2023-09-08T02:11:16;9.55;;;6.95;;
19605;SDS011;9950;50.168;8.210;2023-09-08T02:13:43;11.25;;;6.72;;
19605;SDS011;9950;50.168;8.210;2023-09-08T02:16:12;8.98;;;6.60;;
19605;SDS011;9950;50.168;8.210;2023-09-08T02:18:41;10.55;;;7.38;;
19605;SDS011;9950;50.168;8.210;2023-09-08T02:21:08;8.52;;;6.82;;
19605;SDS011;9950;50.168;8.210;2023-09-08T02:23:36;12.15;;;7.43;;
19605;SDS011;9950;50.168;8.210;2023-09-08T02:26:03;9.88;;;7.47;;
19605;SDS011;9950;50.168;8.210;2023-09-08T02:28:30;9.57;;;6.72;;
19605;SDS011;9950;50.168;8.210;2023-09-08T02:30:57;12.85;;;7.50;;
19605;SDS011;9950;50.168;8.210;2023-09-08T02:33:24;11.38;;;6.75;;
19605;SDS011;9950;50.168;8.210;2023-09-08T02:35:52;9.68;;;6.43;;
19605;SDS011;9950;50.168;8.210;2023-09-08T02:38:20;8.15;;;6.20;;
19605;SDS011;9950;50.168;8.210;2023-09-08T02:40:47;10.93;;;6.82;;
19605;SDS011;9950;50.168;8.210;2023-09-08T02:43:14;12.05;;;8.13;;
19605;SDS011;9950;50.168;8.210;2023-09-08T02:45:41;10.52;;;7.40;;
19605;SDS011;9950;50.168;8.210;2023-09-08T02:48:08;10.65;;;7.38;;
19605;SDS011;9950;50.168;8.210;2023-09-08T02:50:35;12.40;;;8.15;;
19605;SDS011;9950;50.168;8.210;2023-09-08T02:53:04;10.18;;;7.93;;
19605;SDS011;9950;50.168;8.210;2023-09-08T02:55:31;9.77;;;7.70;;
19605;SDS011;9950;50.168;8.210;2023-09-08T02:57:58;11.82;;;8.85;;
19605;SDS011;9950;50.168;8.210;2023-09-08T03:00:25;10.73;;;8.05;;
19605;SDS011;9950;50.168;8.210;2023-09-08T03:02:52;10.63;;;7.90;;
19605;SDS011;9950;50.168;8.210;2023-09-08T03:05:19;9.82;;;7.57;;
19605;SDS011;9950;50.168;8.210;2023-09-08T03:07:47;11.75;;;8.02;;
19605;SDS011;9950;50.168;8.210;2023-09-08T03:10:16;11.15;;;7.90;;
19605;SDS011;9950;50.168;8.210;2023-09-08T03:12:43;9.65;;;7.82;;
19605;SDS011;9950;50.168;8.210;2023-09-08T03:15:10;12.25;;;8.30;;
19605;SDS011;9950;50.168;8.210;2023-09-08T03:17:37;12.30;;;7.97;;
19605;SDS011;9950;50.168;8.210;2023-09-08T03:20:04;10.35;;;7.82;;
19605;SDS011;9950;50.168;8.210;2023-09-08T03:22:33;10.63;;;7.35;;
19605;SDS011;9950;50.168;8.210;2023-09-08T03:25:00;10.43;;;7.97;;
19605;SDS011;9950;50.168;8.210;2023-09-08T03:27:29;10.13;;;7.18;;
19605;SDS011;9950;50.168;8.210;2023-09-08T03:29:56;10.25;;;7.50;;
19605;SDS011;9950;50.168;8.210;2023-09-08T03:32:23;12.73;;;7.78;;
19605;SDS011;9950;50.168;8.210;2023-09-08T03:34:50;11.07;;;7.22;;
19605;SDS011;9950;50.168;8.210;2023-09-08T03:37:18;9.77;;;7.50;;
19605;SDS011;9950;50.168;8.210;2023-09-08T03:39:45;9.65;;;7.03;;
19605;SDS011;9950;50.168;8.210;2023-09-08T03:42:12;12.40;;;7.75;;
19605;SDS011;9950;50.168;8.210;2023-09-08T03:44:40;9.75;;;6.35;;
19605;SDS011;9950;50.168;8.210;2023-09-08T03:47:07;8.90;;;6.70;;
19605;SDS011;9950;50.168;8.210;2023-09-08T03:49:34;9.18;;;6.43;;
19605;SDS011;9950;50.168;8.210;2023-09-08T03:52:02;10.82;;;7.65;;
19605;SDS011;9950;50.168;8.210;2023-09-08T03:54:29;8.70;;;6.82;;
19605;SDS011;9950;50.168;8.210;2023-09-08T03:56:56;10.13;;;7.25;;
19605;SDS011;9950;50.168;8.210;2023-09-08T03:59:23;10.13;;;7.60;;
19605;SDS011;9950;50.168;8.210;2023-09-08T04:01:52;10.48;;;7.13;;
19605;SDS011;9950;50.168;8.210;2023-09-08T04:04:19;9.68;;;7.03;;
19605;SDS011;9950;50.168;8.210;2023-09-08T04:06:46;11.45;;;7.28;;
19605;SDS011;9950;50.168;8.210;2023-09-08T04:09:13;12.15;;;6.63;;
19605;SDS011;9950;50.168;8.210;2023-09-08T04:11:41;9.45;;;6.47;;
19605;SDS011;9950;50.168;8.210;2023-09-08T04:14:08;11.38;;;7.05;;
19605;SDS011;9950;50.168;8.210;2023-09-08T04:16:35;10.50;;;7.43;;
19605;SDS011;9950;50.168;8.210;2023-09-08T04:19:03;10.15;;;7.00;;
19605;SDS011;9950;50.168;8.210;2023-09-08T04:21:30;11.02;;;7.22;;
19605;SDS011;9950;50.168;8.210;2023-09-08T04:23:57;10.10;;;7.38;;
19605;SDS011;9950;50.168;8.210;2023-09-08T04:26:25;10.55;;;7.93;;
19605;SDS011;9950;50.168;8.210;2023-09-08T04:28:52;9.40;;;6.90;;
19605;SDS011;9950;50.168;8.210;2023-09-08T04:31:19;11.25;;;6.88;;
19605;SDS011;9950;50.168;8.210;2023-09-08T04:33:47;9.25;;;6.65;;
19605;SDS011;9950;50.168;8.210;2023-09-08T04:36:15;10.60;;;6.95;;
19605;SDS011;9950;50.168;8.210;2023-09-08T04:38:42;9.93;;;7.10;;
19605;SDS011;9950;50.168;8.210;2023-09-08T04:41:09;14.73;;;8.40;;
19605;SDS011;9950;50.168;8.210;2023-09-08T04:43:36;13.48;;;7.25;;
19605;SDS011;9950;50.168;8.210;2023-09-08T04:46:03;12.02;;;7.88;;
19605;SDS011;9950;50.168;8.210;2023-09-08T04:48:31;9.32;;;6.22;;
19605;SDS011;9950;50.168;8.210;2023-09-08T04:50:58;9.35;;;6.20;;
19605;SDS011;9950;50.168;8.210;2023-09-08T04:53:26;9.57;;;7.00;;
19605;SDS011;9950;50.168;8.210;2023-09-08T04:55:53;8.85;;;6.68;;
19605;SDS011;9950;50.168;8.210;2023-09-08T04:58:21;11.23;;;7.85;;
19605;SDS011;9950;50.168;8.210;2023-09-08T05:00:48;11.82;;;8.93;;
19605;SDS011;9950;50.168;8.210;2023-09-08T05:03:15;12.05;;;8.30;;
19605;SDS011;9950;50.168;8.210;2023-09-08T05:05:42;13.50;;;8.68;;
19605;SDS011;9950;50.168;8.210;2023-09-08T05:08:09;15.23;;;8.60;;
19605;SDS011;9950;50.168;8.210;2023-09-08T05:10:37;14.90;;;8.95;;
19605;SDS011;9950;50.168;8.210;2023-09-08T05:13:04;10.38;;;8.50;;
19605;SDS011;9950;50.168;8.210;2023-09-08T05:15:32;13.43;;;9.02;;
19605;SDS011;9950;50.168;8.210;2023-09-08T05:17:59;11.30;;;8.13;;
19605;SDS011;9950;50.168;8.210;2023-09-08T05:20:26;14.30;;;7.93;;
19605;SDS011;9950;50.168;8.210;2023-09-08T05:22:53;13.85;;;8.75;;
19605;SDS011;9950;50.168;8.210;2023-09-08T05:25:20;14.02;;;8.95;;
19605;SDS011;9950;50.168;8.210;2023-09-08T05:27:49;13.73;;;9.02;;
19605;SDS011;9950;50.168;8.210;2023-09-08T05:30:16;10.90;;;7.93;;
19605;SDS011;9950;50.168;8.210;2023-09-08T05:32:43;12.25;;;8.25;;
19605;SDS011;9950;50.168;8.210;2023-09-08T05:35:10;10.82;;;8.50;;
19605;SDS011;9950;50.168;8.210;2023-09-08T05:37:37;13.20;;;8.95;;
19605;SDS011;9950;50.168;8.210;2023-09-08T05:40:05;12.80;;;9.32;;
19605;SDS011;9950;50.168;8.210;2023-09-08T05:42:32;13.43;;;9.60;;
19605;SDS011;9950;50.168;8.210;2023-09-08T05:45:01;12.75;;;9.00;;
19605;SDS011;9950;50.168;8.210;2023-09-08T05:47:28;12.60;;;8.90;;
19605;SDS011;9950;50.168;8.210;2023-09-08T05:49:55;12.35;;;9.60;;
19605;SDS011;9950;50.168;8.210;2023-09-08T05:52:22;13.55;;;9.55;;
19605;SDS011;9950;50.168;8.210;2023-09-08T05:54:51;13.27;;;9.52;;
19605;SDS011;9950;50.168;8.210;2023-09-08T05:57:18;11.63;;;8.98;;
19605;SDS011;9950;50.168;8.210;2023-09-08T05:59:45;15.20;;;9.75;;
19605;SDS011;9950;50.168;8.210;2023-09-08T06:02:14;14.80;;;9.90;;
19605;SDS011;9950;50.168;8.210;2023-09-08T06:04:41;13.40;;;10.00;;
19605;SDS011;9950;50.168;8.210;2023-09-08T06:07:08;16.33;;;9.30;;
19605;SDS011;9950;50.168;8.210;2023-09-08T06:09:35;12.13;;;8.73;;
19605;SDS011;9950;50.168;8.210;2023-09-08T06:12:03;11.50;;;8.60;;
19605;SDS011;9950;50.168;8.210;2023-09-08T06:14:30;11.60;;;8.95;;
19605;SDS011;9950;50.168;8.210;2023-09-08T06:16:57;12.90;;;9.10;;
19605;SDS011;9950;50.168;8.210;2023-09-08T06:19:25;12.80;;;8.93;;
19605;SDS011;9950;50.168;8.210;2023-09-08T06:21:53;11.13;;;8.90;;
19605;SDS011;9950;50.168;8.210;2023-09-08T06:24:20;11.10;;;8.55;;
19605;SDS011;9950;50.168;8.210;2023-09-08T06:26:47;11.63;;;8.50;;
19605;SDS011;9950;50.168;8.210;2023-09-08T06:29:14;11.23;;;8.68;;
19605;SDS011;9950;50.168;8.210;2023-09-08T06:31:41;13.30;;;7.35;;
19605;SDS011;9950;50.168;8.210;2023-09-08T06:34:08;10.68;;;8.45;;
19605;SDS011;9950;50.168;8.210;2023-09-08T06:36:37;11.23;;;8.20;;
19605;SDS011;9950;50.168;8.210;2023-09-08T06:39:04;12.00;;;8.45;;
19605;SDS011;9950;50.168;8.210;2023-09-08T06:41:31;10.70;;;7.95;;
19605;SDS011;9950;50.168;8.210;2023-09-08T06:43:58;9.75;;;7.38;;
19605;SDS011;9950;50.168;8.210;2023-09-08T06:46:26;11.63;;;7.80;;
19605;SDS011;9950;50.168;8.210;2023-09-08T06:48:53;12.50;;;7.80;;
19605;SDS011;9950;50.168;8.210;2023-09-08T06:51:20;11.35;;;7.45;;
19605;SDS011;9950;50.168;8.210;2023-09-08T06:53:54;11.07;;;7.55;;
19605;SDS011;9950;50.168;8.210;2023-09-08T06:56:22;11.30;;;7.13;;
19605;SDS011;9950;50.168;8.210;2023-09-08T06:58:49;13.73;;;7.35;;
19605;SDS011;9950;50.168;8.210;2023-09-08T07:01:16;10.90;;;7.78;;
19605;SDS011;9950;50.168;8.210;2023-09-08T07:03:44;8.27;;;7.20;;
19605;SDS011;9950;50.168;8.210;2023-09-08T07:06:11;9.18;;;7.28;;
19605;SDS011;9950;50.168;8.210;2023-09-08T07:08:38;7.95;;;7.00;;
19605;SDS011;9950;50.168;8.210;2023-09-08T07:11:07;11.95;;;7.68;;
19605;SDS011;9950;50.168;8.210;2023-09-08T07:13:34;7.30;;;6.22;;
19605;SDS011;9950;50.168;8.210;2023-09-08T07:16:01;8.73;;;6.18;;
19605;SDS011;9950;50.168;8.210;2023-09-08T07:18:28;6.95;;;5.57;;
19605;SDS011;9950;50.168;8.210;2023-09-08T07:20:57;9.30;;;5.60;;
19605;SDS011;9950;50.168;8.210;2023-09-08T07:23:24;7.20;;;5.30;;
19605;SDS011;9950;50.168;8.210;2023-09-08T07:25:51;8.15;;;5.55;;
19605;SDS011;9950;50.168;8.210;2023-09-08T07:28:20;8.25;;;5.53;;
19605;SDS011;9950;50.168;8.210;2023-09-08T07:30:47;7.10;;;5.47;;
19605;SDS011;9950;50.168;8.210;2023-09-08T07:33:14;8.60;;;5.38;;
19605;SDS011;9950;50.168;8.210;2023-09-08T07:35:42;7.50;;;5.47;;
19605;SDS011;9950;50.168;8.210;2023-09-08T07:38:09;5.90;;;5.30;;
19605;SDS011;9950;50.168;8.210;2023-09-08T07:40:36;8.63;;;5.05;;
19605;SDS011;9950;50.168;8.210;2023-09-08T07:43:03;6.55;;;5.45;;
19605;SDS011;9950;50.168;8.210;2023-09-08T07:45:32;7.47;;;5.40;;
19605;SDS011;9950;50.168;8.210;2023-09-08T07:47:59;6.50;;;4.78;;
19605;SDS011;9950;50.168;8.210;2023-09-08T07:50:27;7.05;;;4.88;;
19605;SDS011;9950;50.168;8.210;2023-09-08T07:52:54;5.75;;;4.68;;
19605;SDS011;9950;50.168;8.210;2023-09-08T07:55:22;6.88;;;4.97;;
19605;SDS011;9950;50.168;8.210;2023-09-08T07:57:52;7.82;;;5.18;;
19605;SDS011;9950;50.168;8.210;2023-09-08T08:00:19;7.55;;;4.88;;
19605;SDS011;9950;50.168;8.210;2023-09-08T08:02:48;6.55;;;5.25;;
19605;SDS011;9950;50.168;8.210;2023-09-08T08:05:16;7.55;;;4.93;;
19605;SDS011;9950;50.168;8.210;2023-09-08T08:07:43;11.20;;;5.63;;
19605;SDS011;9950;50.168;8.210;2023-09-08T08:10:11;5.57;;;4.75;;
19605;SDS011;9950;50.168;8.210;2023-09-08T08:12:38;6.00;;;4.95;;
19605;SDS011;9950;50.168;8.210;2023-09-08T08:15:06;6.65;;;4.60;;
19605;SDS011;9950;50.168;8.210;2023-09-08T08:17:35;7.55;;;5.32;;
19605;SDS011;9950;50.168;8.210;2023-09-08T08:20:04;9.48;;;5.03;;
19605;SDS011;9950;50.168;8.210;2023-09-08T08:22:34;5.97;;;4.70;;
19605;SDS011;9950;50.168;8.210;2023-09-08T08:25:01;5.95;;;4.90;;
19605;SDS011;9950;50.168;8.210;2023-09-08T08:27:29;6.70;;;4.80;;
19605;SDS011;9950;50.168;8.210;2023-09-08T08:29:57;7.63;;;5.50;;
19605;SDS011;9950;50.168;8.210;2023-09-08T08:32:25;6.03;;;5.18;;
19605;SDS011;9950;50.168;8.210;2023-09-08T08:34:53;7.13;;;5.00;;
19605;SDS011;9950;50.168;8.210;2023-09-08T08:37:21;6.40;;;4.68;;
19605;SDS011;9950;50.168;8.210;2023-09-08T08:39:48;6.63;;;4.95;;
19605;SDS011;9950;50.168;8.210;2023-09-08T08:42:16;5.85;;;4.78;;
19605;SDS011;9950;50.168;8.210;2023-09-08T08:44:47;6.70;;;4.60;;
19605;SDS011;9950;50.168;8.210;2023-09-08T08:47:15;9.40;;;4.85;;
19605;SDS011;9950;50.168;8.210;2023-09-08T08:49:43;6.25;;;4.50;;
19605;SDS011;9950;50.168;8.210;2023-09-08T08:52:11;5.88;;;4.53;;
19605;SDS011;9950;50.168;8.210;2023-09-08T08:54:40;6.50;;;4.22;;
19605;SDS011;9950;50.168;8.210;2023-09-08T08:57:10;6.13;;;4.80;;
19605;SDS011;9950;50.168;8.210;2023-09-08T08:59:38;5.47;;;4.35;;
19605;SDS011;9950;50.168;8.210;2023-09-08T09:02:06;6.95;;;4.68;;
19605;SDS011;9950;50.168;8.210;2023-09-08T09:04:34;5.63;;;4.55;;
19605;SDS011;9950;50.168;8.210;2023-09-08T09:07:03;6.18;;;4.30;;
19605;SDS011;9950;50.168;8.210;2023-09-08T09:09:30;7.13;;;4.80;;
19605;SDS011;9950;50.168;8.210;2023-09-08T09:11:59;6.80;;;4.80;;
19605;SDS011;9950;50.168;8.210;2023-09-08T09:14:27;6.10;;;4.70;;
19605;SDS011;9950;50.168;8.210;2023-09-08T09:16:55;5.50;;;4.50;;
19605;SDS011;9950;50.168;8.210;2023-09-08T09:19:23;5.20;;;4.60;;
19605;SDS011;9950;50.168;8.210;2023-09-08T09:21:52;7.55;;;4.78;;
19605;SDS011;9950;50.168;8.210;2023-09-08T09:24:28;10.13;;;4.82;;
19605;SDS011;9950;50.168;8.210;2023-09-08T09:26:55;5.93;;;4.18;;
19605;SDS011;9950;50.168;8.210;2023-09-08T09:29:27;7.30;;;4.90;;
19605;SDS011;9950;50.168;8.210;2023-09-08T09:31:55;7.32;;;4.28;;
19605;SDS011;9950;50.168;8.210;2023-09-08T09:34:23;8.52;;;4.53;;
19605;SDS011;9950;50.168;8.210;2023-09-08T09:36:51;7.97;;;4.70;;
19605;SDS011;9950;50.168;8.210;2023-09-08T09:39:19;9.93;;;5.20;;
19605;SDS011;9950;50.168;8.210;2023-09-08T09:41:46;8.98;;;4.60;;
19605;SDS011;9950;50.168;8.210;2023-09-08T09:44:14;5.95;;;4.22;;
19605;SDS011;9950;50.168;8.210;2023-09-08T09:46:45;8.18;;;4.53;;
19605;SDS011;9950;50.168;8.210;2023-09-08T09:49:13;6.95;;;4.45;;
19605;SDS011;9950;50.168;8.210;2023-09-08T09:51:42;6.68;;;4.35;;
19605;SDS011;9950;50.168;8.210;2023-09-08T09:54:10;6.28;;;4.43;;
19605;SDS011;9950;50.168;8.210;2023-09-08T09:56:38;4.28;;;3.80;;
19605;SDS011;9950;50.168;8.210;2023-09-08T09:59:06;5.82;;;4.05;;
19605;SDS011;9950;50.168;8.210;2023-09-08T10:01:34;6.93;;;4.82;;
19605;SDS011;9950;50.168;8.210;2023-09-08T10:04:03;5.72;;;4.10;;
19605;SDS011;9950;50.168;8.210;2023-09-08T10:06:30;5.05;;;4.03;;
19605;SDS011;9950;50.168;8.210;2023-09-08T10:08:58;6.70;;;4.13;;
19605;SDS011;9950;50.168;8.210;2023-09-08T10:11:28;5.63;;;4.40;;
19605;SDS011;9950;50.168;8.210;2023-09-08T10:13:58;5.93;;;4.28;;
19605;SDS011;9950;50.168;8.210;2023-09-08T10:16:26;5.50;;;3.90;;
19605;SDS011;9950;50.168;8.210;2023-09-08T10:18:54;5.20;;;4.18;;
19605;SDS011;9950;50.168;8.210;2023-09-08T10:21:23;5.78;;;3.75;;
19605;SDS011;9950;50.168;8.210;2023-09-08T10:23:52;5.40;;;3.92;;
19605;SDS011;9950;50.168;8.210;2023-09-08T10:26:21;7.32;;;5.75;;
19605;SDS011;9950;50.168;8.210;2023-09-08T10:28:50;5.68;;;3.92;;
19605;SDS011;9950;50.168;8.210;2023-09-08T10:31:21;4.60;;;3.90;;
19605;SDS011;9950;50.168;8.210;2023-09-08T10:33:48;6.90;;;4.10;;
19605;SDS011;9950;50.168;8.210;2023-09-08T10:36:15;7.65;;;4.32;;
19605;SDS011;9950;50.168;8.210;2023-09-08T10:38:44;7.30;;;4.18;;
19605;SDS011;9950;50.168;8.210;2023-09-08T10:41:28;6.00;;;4.18;;
19605;SDS011;9950;50.168;8.210;2023-09-08T10:43:57;8.57;;;4.25;;
19605;SDS011;9950;50.168;8.210;2023-09-08T10:46:28;4.38;;;3.90;;
19605;SDS011;9950;50.168;8.210;2023-09-08T10:49:00;5.80;;;4.03;;
19605;SDS011;9950;50.168;8.210;2023-09-08T10:51:28;6.40;;;3.95;;
19605;SDS011;9950;50.168;8.210;2023-09-08T10:53:56;5.47;;;4.25;;
19605;SDS011;9950;50.168;8.210;2023-09-08T10:56:26;5.45;;;3.97;;
19605;SDS011;9950;50.168;8.210;2023-09-08T10:58:54;6.68;;;3.65;;
19605;SDS011;9950;50.168;8.210;2023-09-08T11:01:21;4.88;;;3.55;;
19605;SDS011;9950;50.168;8.210;2023-09-08T11:03:52;4.60;;;4.13;;
19605;SDS011;9950;50.168;8.210;2023-09-08T11:06:20;8.68;;;4.35;;
19605;SDS011;9950;50.168;8.210;2023-09-08T11:08:48;4.43;;;3.58;;
19605;SDS011;9950;50.168;8.210;2023-09-08T11:11:19;6.50;;;4.15;;
19605;SDS011;9950;50.168;8.210;2023-09-08T11:13:46;5.50;;;4.10;;
19605;SDS011;9950;50.168;8.210;2023-09-08T11:16:13;8.25;;;3.72;;
19605;SDS011;9950;50.168;8.210;2023-09-08T11:18:41;4.55;;;3.60;;
19605;SDS011;9950;50.168;8.210;2023-09-08T11:21:09;4.63;;;4.00;;
19605;SDS011;9950;50.168;8.210;2023-09-08T11:23:37;4.50;;;3.90;;
19605;SDS011;9950;50.168;8.210;2023-09-08T11:26:04;5.72;;;3.75;;
19605;SDS011;9950;50.168;8.210;2023-09-08T11:28:35;6.50;;;4.32;;
19605;SDS011;9950;50.168;8.210;2023-09-08T11:31:04;8.60;;;4.50;;
19605;SDS011;9950;50.168;8.210;2023-09-08T11:33:33;6.20;;;4.43;;
19605;SDS011;9950;50.168;8.210;2023-09-08T11:36:10;5.38;;;4.05;;
19605;SDS011;9950;50.168;8.210;2023-09-08T11:38:38;5.38;;;4.25;;
19605;SDS011;9950;50.168;8.210;2023-09-08T11:41:06;6.20;;;3.80;;
19605;SDS011;9950;50.168;8.210;2023-09-08T11:43:34;8.13;;;4.22;;
19605;SDS011;9950;50.168;8.210;2023-09-08T11:46:01;7.70;;;4.20;;
19605;SDS011;9950;50.168;8.210;2023-09-08T11:48:29;7.95;;;3.83;;
19605;SDS011;9950;50.168;8.210;2023-09-08T11:50:56;5.50;;;4.40;;
19605;SDS011;9950;50.168;8.210;2023-09-08T11:53:23;6.00;;;4.43;;
19605;SDS011;9950;50.168;8.210;2023-09-08T11:55:52;7.30;;;4.15;;
19605;SDS011;9950;50.168;8.210;2023-09-08T11:58:19;6.50;;;4.25;;
19605;SDS011;9950;50.168;8.210;2023-09-08T12:00:48;6.03;;;4.22;;
19605;SDS011;9950;50.168;8.210;2023-09-08T12:03:16;7.18;;;4.70;;
19605;SDS011;9950;50.168;8.210;2023-09-08T12:05:43;5.38;;;4.13;;
19605;SDS011;9950;50.168;8.210;2023-09-08T12:08:11;4.57;;;4.05;;
19605;SDS011;9950;50.168;8.210;2023-09-08T12:10:38;4.90;;;4.40;;
19605;SDS011;9950;50.168;8.210;2023-09-08T12:13:05;5.95;;;4.70;;
19605;SDS011;9950;50.168;8.210;2023-09-08T12:15:34;5.28;;;4.25;;
19605;SDS011;9950;50.168;8.210;2023-09-08T12:18:03;4.93;;;4.15;;
19605;SDS011;9950;50.168;8.210;2023-09-08T12:20:30;4.47;;;4.07;;
19605;SDS011;9950;50.168;8.210;2023-09-08T12:22:59;5.20;;;3.85;;
19605;SDS011;9950;50.168;8.210;2023-09-08T12:25:27;6.30;;;4.65;;
19605;SDS011;9950;50.168;8.210;2023-09-08T12:27:56;8.40;;;4.57;;
19605;SDS011;9950;50.168;8.210;2023-09-08T12:30:24;5.50;;;4.60;;
19605;SDS011;9950;50.168;8.210;2023-09-08T12:32:55;6.00;;;4.65;;
19605;SDS011;9950;50.168;8.210;2023-09-08T12:35:24;7.05;;;4.63;;
19605;SDS011;9950;50.168;8.210;2023-09-08T12:37:52;6.28;;;4.47;;
19605;SDS011;9950;50.168;8.210;2023-09-08T12:40:19;5.05;;;4.30;;
19605;SDS011;9950;50.168;8.210;2023-09-08T12:42:47;8.48;;;4.70;;
19605;SDS011;9950;50.168;8.210;2023-09-08T12:45:14;5.68;;;4.75;;
19605;SDS011;9950;50.168;8.210;2023-09-08T12:47:42;6.90;;;4.53;;
19605;SDS011;9950;50.168;8.210;2023-09-08T12:50:09;5.82;;;4.22;;
19605;SDS011;9950;50.168;8.210;2023-09-08T12:52:39;5.95;;;4.70;;
19605;SDS011;9950;50.168;8.210;2023-09-08T12:55:06;5.63;;;4.30;;
19605;SDS011;9950;50.168;8.210;2023-09-08T12:57:34;6.13;;;4.15;;
19605;SDS011;9950;50.168;8.210;2023-09-08T13:00:02;7.00;;;4.68;;
19605;SDS011;9950;50.168;8.210;2023-09-08T13:02:29;4.50;;;4.03;;
19605;SDS011;9950;50.168;8.210;2023-09-08T13:04:56;4.45;;;4.05;;
19605;SDS011;9950;50.168;8.210;2023-09-08T13:07:26;5.25;;;4.10;;
19605;SDS011;9950;50.168;8.210;2023-09-08T13:09:57;10.35;;;4.65;;
19605;SDS011;9950;50.168;8.210;2023-09-08T13:12:24;5.70;;;4.10;;
19605;SDS011;9950;50.168;8.210;2023-09-08T13:14:51;7.07;;;4.05;;
19605;SDS011;9950;50.168;8.210;2023-09-08T13:17:19;6.43;;;4.03;;
19605;SDS011;9950;50.168;8.210;2023-09-08T13:19:46;8.13;;;4.15;;
19605;SDS011;9950;50.168;8.210;2023-09-08T13:22:14;5.47;;;4.03;;
19605;SDS011;9950;50.168;8.210;2023-09-08T13:24:41;5.40;;;4.32;;
19605;SDS011;9950;50.168;8.210;2023-09-08T13:27:09;6.07;;;4.07;;
19605;SDS011;9950;50.168;8.210;2023-09-08T13:29:37;4.95;;;4.00;;
19605;SDS011;9950;50.168;8.210;2023-09-08T13:32:05;6.07;;;4.47;;
19605;SDS011;9950;50.168;8.210;2023-09-08T13:34:33;6.93;;;3.85;;
19605;SDS011;9950;50.168;8.210;2023-09-08T13:37:00;12.23;;;4.78;;
19605;SDS011;9950;50.168;8.210;2023-09-08T13:39:28;5.07;;;4.00;;
19605;SDS011;9950;50.168;8.210;2023-09-08T13:41:56;4.60;;;4.20;;
19605;SDS011;9950;50.168;8.210;2023-09-08T13:44:24;6.22;;;4.30;;
19605;SDS011;9950;50.168;8.210;2023-09-08T13:46:53;4.13;;;3.72;;
19605;SDS011;9950;50.168;8.210;2023-09-08T13:49:20;5.82;;;4.22;;
19605;SDS011;9950;50.168;8.210;2023-09-08T13:51:48;3.92;;;3.47;;
19605;SDS011;9950;50.168;8.210;2023-09-08T13:54:17;5.13;;;3.88;;
19605;SDS011;9950;50.168;8.210;2023-09-08T13:56:44;5.65;;;3.97;;
19605;SDS011;9950;50.168;8.210;2023-09-08T13:59:11;4.07;;;3.53;;
19605;SDS011;9950;50.168;8.210;2023-09-08T14:01:40;6.47;;;4.00;;
19605;SDS011;9950;50.168;8.210;2023-09-08T14:04:07;5.18;;;4.03;;
19605;SDS011;9950;50.168;8.210;2023-09-08T14:06:34;6.47;;;3.88;;
19605;SDS011;9950;50.168;8.210;2023-09-08T14:09:01;7.43;;;4.60;;
19605;SDS011;9950;50.168;8.210;2023-09-08T14:11:29;7.85;;;3.60;;
19605;SDS011;9950;50.168;8.210;2023-09-08T14:13:56;4.72;;;4.00;;
19605;SDS011;9950;50.168;8.210;2023-09-08T14:16:23;5.63;;;3.70;;
19605;SDS011;9950;50.168;8.210;2023-09-08T14:18:52;4.60;;;3.72;;
19605;SDS011;9950;50.168;8.210;2023-09-08T14:21:19;7.18;;;4.38;;
19605;SDS011;9950;50.168;8.210;2023-09-08T14:23:46;4.88;;;4.22;;
19605;SDS011;9950;50.168;8.210;2023-09-08T14:26:13;6.82;;;4.22;;
19605;SDS011;9950;50.168;8.210;2023-09-08T14:28:40;5.10;;;4.07;;
19605;SDS011;9950;50.168;8.210;2023-09-08T14:31:07;5.20;;;4.00;;
19605;SDS011;9950;50.168;8.210;2023-09-08T14:33:36;6.75;;;5.10;;
19605;SDS011;9950;50.168;8.210;2023-09-08T14:36:05;5.53;;;4.22;;
19605;SDS011;9950;50.168;8.210;2023-09-08T14:38:33;5.40;;;4.10;;
19605;SDS011;9950;50.168;8.210;2023-09-08T14:41:00;5.43;;;3.70;;
19605;SDS011;9950;50.168;8.210;2023-09-08T14:43:28;5.20;;;3.47;;
19605;SDS011;9950;50.168;8.210;2023-09-08T14:45:56;4.40;;;3.97;;
19605;SDS011;9950;50.168;8.210;2023-09-08T14:48:24;6.35;;;3.80;;
19605;SDS011;9950;50.168;8.210;2023-09-08T14:50:51;5.25;;;4.18;;
19605;SDS011;9950;50.168;8.210;2023-09-08T14:53:20;5.18;;;3.88;;
19605;SDS011;9950;50.168;8.210;2023-09-08T14:55:47;3.60;;;3.30;;
19605;SDS011;9950;50.168;8.210;2023-09-08T14:58:15;6.05;;;4.13;;
19605;SDS011;9950;50.168;8.210;2023-09-08T15:00:42;5.43;;;3.92;;